sensor_id;sensor_type;location;lat;lon;timestamp;P1;durP1;ratioP1;P2;durP2;ratioP2
7383;SDS011;3733;47.994;8.820;2023-04-25T00:02:25;6.10;;;3.60;;
7383;SDS011;3733;47.994;8.820;2023-04-25T00:04:50;4.03;;;3.20;;
7383;SDS011;3733;47.994;8.820;2023-04-25T00:07:16;3.20;;;2.67;;
7383;SDS011;3733;47.994;8.820;2023-04-25T00:09:42;6.87;;;3.60;;
7383;SDS011;3733;47.994;8.820;2023-04-25T00:12:08;5.63;;;3.40;;
7383;SDS011;3733;47.994;8.820;2023-04-25T00:14:34;6.43;;;3.50;;
7383;SDS011;3733;47.994;8.820;2023-04-25T00:17:00;7.53;;;3.30;;
7383;SDS011;3733;47.994;8.820;2023-04-25T00:19:26;6.53;;;3.37;;
7383;SDS011;3733;47.994;8.820;2023-04-25T00:21:54;5.43;;;2.90;;
7383;SDS011;3733;47.994;8.820;2023-04-25T00:24:20;12.83;;;3.77;;
7383;SDS011;3733;47.994;8.820;2023-04-25T00:26:46;5.10;;;3.10;;
7383;SDS011;3733;47.994;8.820;2023-04-25T00:29:11;6.63;;;3.50;;
7383;SDS011;3733;47.994;8.820;2023-04-25T00:31:37;8.43;;;3.40;;
7383;SDS011;3733;47.994;8.820;2023-04-25T00:34:02;6.50;;;3.40;;
7383;SDS011;3733;47.994;8.820;2023-04-25T00:36:28;8.37;;;3.40;;
7383;SDS011;3733;47.994;8.820;2023-04-25T00:38:54;5.03;;;3.57;;
7383;SDS011;3733;47.994;8.820;2023-04-25T00:41:20;5.33;;;3.00;;
7383;SDS011;3733;47.994;8.820;2023-04-25T00:43:45;7.30;;;3.60;;
7383;SDS011;3733;47.994;8.820;2023-04-25T00:46:13;11.10;;;3.20;;
7383;SDS011;3733;47.994;8.820;2023-04-25T00:48:39;6.60;;;2.80;;
7383;SDS011;3733;47.994;8.820;2023-04-25T00:51:04;5.80;;;3.60;;
7383;SDS011;3733;47.994;8.820;2023-04-25T00:53:31;6.73;;;3.30;;
7383;SDS011;3733;47.994;8.820;2023-04-25T00:55:57;6.90;;;3.27;;
7383;SDS011;3733;47.994;8.820;2023-04-25T00:58:23;8.50;;;3.53;;
7383;SDS011;3733;47.994;8.820;2023-04-25T01:00:50;4.10;;;3.50;;
7383;SDS011;3733;47.994;8.820;2023-04-25T01:03:17;7.10;;;3.30;;
7383;SDS011;3733;47.994;8.820;2023-04-25T01:05:45;5.10;;;3.00;;
7383;SDS011;3733;47.994;8.820;2023-04-25T01:08:11;7.43;;;3.07;;
7383;SDS011;3733;47.994;8.820;2023-04-25T01:10:38;4.50;;;2.90;;
7383;SDS011;3733;47.994;8.820;2023-04-25T01:13:03;4.97;;;3.00;;
7383;SDS011;3733;47.994;8.820;2023-04-25T01:15:29;3.20;;;2.90;;
7383;SDS011;3733;47.994;8.820;2023-04-25T01:17:55;5.90;;;2.87;;
7383;SDS011;3733;47.994;8.820;2023-04-25T01:20:23;3.10;;;2.63;;
7383;SDS011;3733;47.994;8.820;2023-04-25T01:22:49;5.60;;;3.00;;
7383;SDS011;3733;47.994;8.820;2023-04-25T01:25:16;5.40;;;3.27;;
7383;SDS011;3733;47.994;8.820;2023-04-25T01:27:42;3.80;;;2.97;;
7383;SDS011;3733;47.994;8.820;2023-04-25T01:30:08;3.23;;;2.90;;
7383;SDS011;3733;47.994;8.820;2023-04-25T01:32:34;7.30;;;2.60;;
7383;SDS011;3733;47.994;8.820;2023-04-25T01:35:06;3.27;;;2.63;;
7383;SDS011;3733;47.994;8.820;2023-04-25T01:37:37;6.50;;;2.50;;
7383;SDS011;3733;47.994;8.820;2023-04-25T01:40:04;4.43;;;2.70;;
7383;SDS011;3733;47.994;8.820;2023-04-25T01:42:31;2.43;;;2.23;;
7383;SDS011;3733;47.994;8.820;2023-04-25T01:44:58;3.50;;;2.27;;
7383;SDS011;3733;47.994;8.820;2023-04-25T01:47:24;2.73;;;2.37;;
7383;SDS011;3733;47.994;8.820;2023-04-25T01:49:49;3.67;;;2.23;;
7383;SDS011;3733;47.994;8.820;2023-04-25T01:52:15;2.27;;;2.07;;
7383;SDS011;3733;47.994;8.820;2023-04-25T01:54:41;3.50;;;2.50;;
7383;SDS011;3733;47.994;8.820;2023-04-25T01:57:09;7.20;;;4.23;;
7383;SDS011;3733;47.994;8.820;2023-04-25T01:59:37;2.87;;;2.30;;
7383;SDS011;3733;47.994;8.820;2023-04-25T02:02:03;10.30;;;2.60;;
7383;SDS011;3733;47.994;8.820;2023-04-25T02:04:29;2.60;;;2.30;;
7383;SDS011;3733;47.994;8.820;2023-04-25T02:06:55;1.90;;;1.70;;
7383;SDS011;3733;47.994;8.820;2023-04-25T02:09:21;5.70;;;3.10;;
7383;SDS011;3733;47.994;8.820;2023-04-25T02:11:46;3.60;;;2.53;;
7383;SDS011;3733;47.994;8.820;2023-04-25T02:14:12;3.23;;;2.27;;
7383;SDS011;3733;47.994;8.820;2023-04-25T02:16:38;2.93;;;2.50;;
7383;SDS011;3733;47.994;8.820;2023-04-25T02:19:04;2.90;;;2.30;;
7383;SDS011;3733;47.994;8.820;2023-04-25T02:21:30;6.43;;;2.50;;
7383;SDS011;3733;47.994;8.820;2023-04-25T02:23:56;4.70;;;2.40;;
7383;SDS011;3733;47.994;8.820;2023-04-25T02:26:22;3.37;;;2.40;;
7383;SDS011;3733;47.994;8.820;2023-04-25T02:28:48;2.40;;;2.10;;
7383;SDS011;3733;47.994;8.820;2023-04-25T02:31:15;7.43;;;2.40;;
7383;SDS011;3733;47.994;8.820;2023-04-25T02:33:41;5.13;;;2.53;;
7383;SDS011;3733;47.994;8.820;2023-04-25T02:36:07;2.50;;;2.30;;
7383;SDS011;3733;47.994;8.820;2023-04-25T02:38:32;4.50;;;3.20;;
7383;SDS011;3733;47.994;8.820;2023-04-25T02:40:58;3.10;;;2.80;;
7383;SDS011;3733;47.994;8.820;2023-04-25T02:43:24;5.40;;;2.93;;
7383;SDS011;3733;47.994;8.820;2023-04-25T02:45:49;3.77;;;2.90;;
7383;SDS011;3733;47.994;8.820;2023-04-25T02:48:15;6.10;;;2.80;;
7383;SDS011;3733;47.994;8.820;2023-04-25T02:50:41;3.07;;;2.77;;
7383;SDS011;3733;47.994;8.820;2023-04-25T02:53:07;6.63;;;2.90;;
7383;SDS011;3733;47.994;8.820;2023-04-25T02:55:32;6.53;;;2.97;;
7383;SDS011;3733;47.994;8.820;2023-04-25T02:57:58;4.83;;;2.70;;
7383;SDS011;3733;47.994;8.820;2023-04-25T03:00:24;5.03;;;3.37;;
7383;SDS011;3733;47.994;8.820;2023-04-25T03:02:50;6.57;;;3.20;;
7383;SDS011;3733;47.994;8.820;2023-04-25T03:05:16;7.53;;;2.37;;
7383;SDS011;3733;47.994;8.820;2023-04-25T03:07:42;3.13;;;2.83;;
7383;SDS011;3733;47.994;8.820;2023-04-25T03:10:09;7.60;;;3.60;;
7383;SDS011;3733;47.994;8.820;2023-04-25T03:12:35;6.03;;;3.30;;
7383;SDS011;3733;47.994;8.820;2023-04-25T03:15:01;3.70;;;2.90;;
7383;SDS011;3733;47.994;8.820;2023-04-25T03:17:26;4.53;;;2.77;;
7383;SDS011;3733;47.994;8.820;2023-04-25T03:19:52;6.40;;;3.17;;
7383;SDS011;3733;47.994;8.820;2023-04-25T03:22:17;7.90;;;3.03;;
7383;SDS011;3733;47.994;8.820;2023-04-25T03:24:43;3.73;;;2.87;;
7383;SDS011;3733;47.994;8.820;2023-04-25T03:27:09;5.27;;;3.50;;
7383;SDS011;3733;47.994;8.820;2023-04-25T03:29:34;4.30;;;3.10;;
7383;SDS011;3733;47.994;8.820;2023-04-25T03:32:00;10.37;;;2.70;;
7383;SDS011;3733;47.994;8.820;2023-04-25T03:34:26;7.57;;;3.10;;
7383;SDS011;3733;47.994;8.820;2023-04-25T03:36:51;5.53;;;3.93;;
7383;SDS011;3733;47.994;8.820;2023-04-25T03:39:17;4.53;;;3.67;;
7383;SDS011;3733;47.994;8.820;2023-04-25T03:41:42;3.30;;;3.00;;
7383;SDS011;3733;47.994;8.820;2023-04-25T03:44:08;4.93;;;3.10;;
7383;SDS011;3733;47.994;8.820;2023-04-25T03:46:34;5.43;;;3.33;;
7383;SDS011;3733;47.994;8.820;2023-04-25T03:48:59;7.53;;;3.80;;
7383;SDS011;3733;47.994;8.820;2023-04-25T03:51:25;6.00;;;4.03;;
7383;SDS011;3733;47.994;8.820;2023-04-25T03:53:51;5.00;;;4.10;;
7383;SDS011;3733;47.994;8.820;2023-04-25T03:56:17;8.60;;;5.40;;
7383;SDS011;3733;47.994;8.820;2023-04-25T03:58:43;13.80;;;4.43;;
7383;SDS011;3733;47.994;8.820;2023-04-25T04:01:08;6.50;;;4.57;;
7383;SDS011;3733;47.994;8.820;2023-04-25T04:03:34;6.90;;;4.80;;
7383;SDS011;3733;47.994;8.820;2023-04-25T04:06:04;5.83;;;4.80;;
7383;SDS011;3733;47.994;8.820;2023-04-25T04:08:30;7.00;;;4.77;;
7383;SDS011;3733;47.994;8.820;2023-04-25T04:10:57;6.17;;;3.73;;
7383;SDS011;3733;47.994;8.820;2023-04-25T04:13:23;6.83;;;3.60;;
7383;SDS011;3733;47.994;8.820;2023-04-25T04:15:50;11.97;;;6.00;;
7383;SDS011;3733;47.994;8.820;2023-04-25T04:18:16;3.70;;;3.40;;
7383;SDS011;3733;47.994;8.820;2023-04-25T04:20:41;6.00;;;4.30;;
7383;SDS011;3733;47.994;8.820;2023-04-25T04:23:07;4.77;;;3.67;;
7383;SDS011;3733;47.994;8.820;2023-04-25T04:25:32;3.47;;;3.17;;
7383;SDS011;3733;47.994;8.820;2023-04-25T04:27:59;5.10;;;3.67;;
7383;SDS011;3733;47.994;8.820;2023-04-25T04:30:25;4.20;;;3.10;;
7383;SDS011;3733;47.994;8.820;2023-04-25T04:32:54;6.33;;;4.20;;
7383;SDS011;3733;47.994;8.820;2023-04-25T04:35:21;4.27;;;3.87;;
7383;SDS011;3733;47.994;8.820;2023-04-25T04:37:47;4.07;;;3.37;;
7383;SDS011;3733;47.994;8.820;2023-04-25T04:40:13;4.00;;;3.60;;
7383;SDS011;3733;47.994;8.820;2023-04-25T04:42:43;10.50;;;5.13;;
7383;SDS011;3733;47.994;8.820;2023-04-25T04:45:10;8.10;;;6.00;;
7383;SDS011;3733;47.994;8.820;2023-04-25T04:47:37;6.83;;;5.07;;
7383;SDS011;3733;47.994;8.820;2023-04-25T04:50:05;8.00;;;4.50;;
7383;SDS011;3733;47.994;8.820;2023-04-25T04:52:34;6.03;;;4.00;;
7383;SDS011;3733;47.994;8.820;2023-04-25T04:55:01;5.07;;;4.00;;
7383;SDS011;3733;47.994;8.820;2023-04-25T04:57:28;5.20;;;4.10;;
7383;SDS011;3733;47.994;8.820;2023-04-25T04:59:53;14.03;;;4.23;;
7383;SDS011;3733;47.994;8.820;2023-04-25T05:02:19;6.07;;;4.10;;
7383;SDS011;3733;47.994;8.820;2023-04-25T05:04:45;6.07;;;3.80;;
7383;SDS011;3733;47.994;8.820;2023-04-25T05:07:10;6.47;;;4.57;;
7383;SDS011;3733;47.994;8.820;2023-04-25T05:09:36;9.63;;;5.00;;
7383;SDS011;3733;47.994;8.820;2023-04-25T05:12:02;5.20;;;4.43;;
7383;SDS011;3733;47.994;8.820;2023-04-25T05:14:27;5.87;;;4.60;;
7383;SDS011;3733;47.994;8.820;2023-04-25T05:16:53;5.97;;;4.37;;
7383;SDS011;3733;47.994;8.820;2023-04-25T05:19:18;7.00;;;4.80;;
7383;SDS011;3733;47.994;8.820;2023-04-25T05:21:44;6.27;;;4.50;;
7383;SDS011;3733;47.994;8.820;2023-04-25T05:24:10;6.53;;;4.80;;
7383;SDS011;3733;47.994;8.820;2023-04-25T05:26:36;9.43;;;4.60;;
7383;SDS011;3733;47.994;8.820;2023-04-25T05:29:02;10.53;;;5.07;;
7383;SDS011;3733;47.994;8.820;2023-04-25T05:31:28;8.10;;;5.30;;
7383;SDS011;3733;47.994;8.820;2023-04-25T05:33:53;8.67;;;5.13;;
7383;SDS011;3733;47.994;8.820;2023-04-25T05:36:19;7.40;;;4.37;;
7383;SDS011;3733;47.994;8.820;2023-04-25T05:38:45;6.20;;;4.20;;
7383;SDS011;3733;47.994;8.820;2023-04-25T05:41:10;7.70;;;5.27;;
7383;SDS011;3733;47.994;8.820;2023-04-25T05:43:36;6.93;;;5.23;;
7383;SDS011;3733;47.994;8.820;2023-04-25T05:46:02;7.50;;;6.13;;
7383;SDS011;3733;47.994;8.820;2023-04-25T05:48:27;13.77;;;6.00;;
7383;SDS011;3733;47.994;8.820;2023-04-25T05:50:53;10.90;;;5.80;;
7383;SDS011;3733;47.994;8.820;2023-04-25T05:53:19;7.20;;;5.67;;
7383;SDS011;3733;47.994;8.820;2023-04-25T05:55:46;9.27;;;5.50;;
7383;SDS011;3733;47.994;8.820;2023-04-25T05:58:12;11.80;;;5.63;;
7383;SDS011;3733;47.994;8.820;2023-04-25T06:00:38;10.80;;;6.53;;
7383;SDS011;3733;47.994;8.820;2023-04-25T06:03:03;6.83;;;4.50;;
7383;SDS011;3733;47.994;8.820;2023-04-25T06:05:29;8.57;;;5.20;;
7383;SDS011;3733;47.994;8.820;2023-04-25T06:07:55;10.20;;;5.20;;
7383;SDS011;3733;47.994;8.820;2023-04-25T06:10:21;9.70;;;5.77;;
7383;SDS011;3733;47.994;8.820;2023-04-25T06:12:47;9.67;;;5.63;;
7383;SDS011;3733;47.994;8.820;2023-04-25T06:15:14;8.00;;;4.93;;
7383;SDS011;3733;47.994;8.820;2023-04-25T06:17:40;8.70;;;5.13;;
7383;SDS011;3733;47.994;8.820;2023-04-25T06:20:06;7.77;;;4.83;;
7383;SDS011;3733;47.994;8.820;2023-04-25T06:22:33;8.53;;;5.70;;
7383;SDS011;3733;47.994;8.820;2023-04-25T06:24:58;9.07;;;5.20;;
7383;SDS011;3733;47.994;8.820;2023-04-25T06:27:25;9.33;;;5.77;;
7383;SDS011;3733;47.994;8.820;2023-04-25T06:29:50;8.37;;;4.77;;
7383;SDS011;3733;47.994;8.820;2023-04-25T06:32:16;8.33;;;4.90;;
7383;SDS011;3733;47.994;8.820;2023-04-25T06:34:43;7.17;;;5.00;;
7383;SDS011;3733;47.994;8.820;2023-04-25T06:37:08;9.00;;;4.97;;
7383;SDS011;3733;47.994;8.820;2023-04-25T06:39:34;7.10;;;4.50;;
7383;SDS011;3733;47.994;8.820;2023-04-25T06:42:00;10.33;;;5.47;;
7383;SDS011;3733;47.994;8.820;2023-04-25T06:44:25;8.27;;;5.70;;
7383;SDS011;3733;47.994;8.820;2023-04-25T06:46:51;8.30;;;4.80;;
7383;SDS011;3733;47.994;8.820;2023-04-25T06:49:17;5.87;;;4.57;;
7383;SDS011;3733;47.994;8.820;2023-04-25T06:51:42;7.80;;;4.63;;
7383;SDS011;3733;47.994;8.820;2023-04-25T06:54:08;5.57;;;4.00;;
7383;SDS011;3733;47.994;8.820;2023-04-25T06:56:33;8.47;;;5.13;;
7383;SDS011;3733;47.994;8.820;2023-04-25T06:58:59;8.80;;;5.50;;
7383;SDS011;3733;47.994;8.820;2023-04-25T07:01:25;10.53;;;5.63;;
7383;SDS011;3733;47.994;8.820;2023-04-25T07:03:51;10.10;;;6.10;;
7383;SDS011;3733;47.994;8.820;2023-04-25T07:06:17;7.03;;;4.97;;
7383;SDS011;3733;47.994;8.820;2023-04-25T07:08:42;9.83;;;5.53;;
7383;SDS011;3733;47.994;8.820;2023-04-25T07:11:08;8.20;;;5.57;;
7383;SDS011;3733;47.994;8.820;2023-04-25T07:13:33;8.63;;;6.47;;
7383;SDS011;3733;47.994;8.820;2023-04-25T07:15:59;7.60;;;5.57;;
7383;SDS011;3733;47.994;8.820;2023-04-25T07:18:25;10.63;;;6.53;;
7383;SDS011;3733;47.994;8.820;2023-04-25T07:20:50;12.73;;;6.33;;
7383;SDS011;3733;47.994;8.820;2023-04-25T07:23:16;10.17;;;6.40;;
7383;SDS011;3733;47.994;8.820;2023-04-25T07:25:42;8.67;;;5.83;;
7383;SDS011;3733;47.994;8.820;2023-04-25T07:28:07;9.20;;;5.87;;
7383;SDS011;3733;47.994;8.820;2023-04-25T07:30:33;6.90;;;5.37;;
7383;SDS011;3733;47.994;8.820;2023-04-25T07:32:59;9.10;;;5.83;;
7383;SDS011;3733;47.994;8.820;2023-04-25T07:35:25;7.70;;;4.90;;
7383;SDS011;3733;47.994;8.820;2023-04-25T07:37:51;8.20;;;4.23;;
7383;SDS011;3733;47.994;8.820;2023-04-25T07:40:16;7.73;;;3.40;;
7383;SDS011;3733;47.994;8.820;2023-04-25T07:42:42;5.83;;;3.13;;
7383;SDS011;3733;47.994;8.820;2023-04-25T07:45:08;3.50;;;2.70;;
7383;SDS011;3733;47.994;8.820;2023-04-25T07:47:34;4.00;;;2.97;;
7383;SDS011;3733;47.994;8.820;2023-04-25T07:50:00;4.50;;;2.40;;
7383;SDS011;3733;47.994;8.820;2023-04-25T07:52:26;2.00;;;1.80;;
7383;SDS011;3733;47.994;8.820;2023-04-25T07:54:51;2.60;;;2.33;;
7383;SDS011;3733;47.994;8.820;2023-04-25T07:57:17;3.20;;;2.10;;
7383;SDS011;3733;47.994;8.820;2023-04-25T07:59:44;5.07;;;2.87;;
7383;SDS011;3733;47.994;8.820;2023-04-25T08:02:10;3.27;;;2.60;;
7383;SDS011;3733;47.994;8.820;2023-04-25T08:04:35;6.63;;;3.47;;
7383;SDS011;3733;47.994;8.820;2023-04-25T08:07:01;5.17;;;3.57;;
7383;SDS011;3733;47.994;8.820;2023-04-25T08:09:27;6.20;;;3.60;;
7383;SDS011;3733;47.994;8.820;2023-04-25T08:11:52;6.30;;;3.00;;
7383;SDS011;3733;47.994;8.820;2023-04-25T08:14:18;3.60;;;2.57;;
7383;SDS011;3733;47.994;8.820;2023-04-25T08:16:44;5.87;;;2.20;;
7383;SDS011;3733;47.994;8.820;2023-04-25T08:19:10;2.03;;;1.73;;
7383;SDS011;3733;47.994;8.820;2023-04-25T08:21:36;2.63;;;1.53;;
7383;SDS011;3733;47.994;8.820;2023-04-25T08:24:01;3.60;;;2.40;;
7383;SDS011;3733;47.994;8.820;2023-04-25T08:26:28;1.87;;;1.77;;
7383;SDS011;3733;47.994;8.820;2023-04-25T08:28:53;1.37;;;1.27;;
7383;SDS011;3733;47.994;8.820;2023-04-25T08:31:19;1.47;;;1.37;;
7383;SDS011;3733;47.994;8.820;2023-04-25T08:33:45;2.53;;;1.43;;
7383;SDS011;3733;47.994;8.820;2023-04-25T08:36:11;1.50;;;1.40;;
7383;SDS011;3733;47.994;8.820;2023-04-25T08:38:37;1.00;;;0.90;;
7383;SDS011;3733;47.994;8.820;2023-04-25T08:41:02;1.20;;;1.10;;
7383;SDS011;3733;47.994;8.820;2023-04-25T08:43:30;1.30;;;1.20;;
7383;SDS011;3733;47.994;8.820;2023-04-25T08:45:58;1.73;;;1.63;;
7383;SDS011;3733;47.994;8.820;2023-04-25T08:48:26;1.83;;;1.60;;
7383;SDS011;3733;47.994;8.820;2023-04-25T08:50:54;1.50;;;1.40;;
7383;SDS011;3733;47.994;8.820;2023-04-25T08:53:22;1.67;;;1.57;;
7383;SDS011;3733;47.994;8.820;2023-04-25T08:55:53;2.80;;;2.00;;
7383;SDS011;3733;47.994;8.820;2023-04-25T08:58:20;2.23;;;1.67;;
7383;SDS011;3733;47.994;8.820;2023-04-25T09:00:47;1.90;;;1.50;;
7383;SDS011;3733;47.994;8.820;2023-04-25T09:03:13;1.47;;;1.37;;
7383;SDS011;3733;47.994;8.820;2023-04-25T09:05:40;1.20;;;1.20;;
7383;SDS011;3733;47.994;8.820;2023-04-25T09:08:06;1.43;;;1.33;;
7383;SDS011;3733;47.994;8.820;2023-04-25T09:10:32;1.03;;;1.03;;
7383;SDS011;3733;47.994;8.820;2023-04-25T09:13:06;2.20;;;1.23;;
7383;SDS011;3733;47.994;8.820;2023-04-25T09:15:58;2.77;;;1.20;;
7383;SDS011;3733;47.994;8.820;2023-04-25T09:20:51;1.27;;;1.27;;
7383;SDS011;3733;47.994;8.820;2023-04-25T09:23:18;1.30;;;1.20;;
7383;SDS011;3733;47.994;8.820;2023-04-25T09:25:47;1.33;;;1.23;;
7383;SDS011;3733;47.994;8.820;2023-04-25T09:28:22;1.00;;;1.00;;
7383;SDS011;3733;47.994;8.820;2023-04-25T09:30:56;1.13;;;1.10;;
7383;SDS011;3733;47.994;8.820;2023-04-25T09:33:28;1.27;;;1.10;;
7383;SDS011;3733;47.994;8.820;2023-04-25T09:36:01;1.60;;;1.50;;
7383;SDS011;3733;47.994;8.820;2023-04-25T09:38:28;1.70;;;1.50;;
7383;SDS011;3733;47.994;8.820;2023-04-25T09:40:56;1.80;;;1.30;;
7383;SDS011;3733;47.994;8.820;2023-04-25T09:43:22;1.60;;;1.50;;
7383;SDS011;3733;47.994;8.820;2023-04-25T09:45:49;1.60;;;1.50;;
7383;SDS011;3733;47.994;8.820;2023-04-25T09:48:23;1.63;;;1.53;;
7383;SDS011;3733;47.994;8.820;2023-04-25T09:53:44;1.70;;;1.60;;
7383;SDS011;3733;47.994;8.820;2023-04-25T09:56:12;1.60;;;1.50;;
7383;SDS011;3733;47.994;8.820;2023-04-25T09:58:38;1.50;;;1.40;;
7383;SDS011;3733;47.994;8.820;2023-04-25T10:01:09;1.53;;;1.43;;
7383;SDS011;3733;47.994;8.820;2023-04-25T10:03:39;1.70;;;1.60;;
7383;SDS011;3733;47.994;8.820;2023-04-25T10:06:17;1.43;;;1.33;;
7383;SDS011;3733;47.994;8.820;2023-04-25T10:08:45;1.70;;;1.60;;
7383;SDS011;3733;47.994;8.820;2023-04-25T10:11:13;1.47;;;1.37;;
7383;SDS011;3733;47.994;8.820;2023-04-25T10:13:40;1.47;;;1.37;;
7383;SDS011;3733;47.994;8.820;2023-04-25T10:16:07;1.53;;;1.40;;
7383;SDS011;3733;47.994;8.820;2023-04-25T10:18:33;2.40;;;1.47;;
7383;SDS011;3733;47.994;8.820;2023-04-25T10:21:00;1.50;;;1.40;;
7383;SDS011;3733;47.994;8.820;2023-04-25T10:23:26;1.17;;;1.10;;
7383;SDS011;3733;47.994;8.820;2023-04-25T10:25:54;1.00;;;1.00;;
7383;SDS011;3733;47.994;8.820;2023-04-25T10:28:20;1.60;;;1.50;;
7383;SDS011;3733;47.994;8.820;2023-04-25T10:33:33;2.37;;;1.67;;
7383;SDS011;3733;47.994;8.820;2023-04-25T10:36:14;1.00;;;1.00;;
7383;SDS011;3733;47.994;8.820;2023-04-25T10:38:42;1.90;;;1.50;;
7383;SDS011;3733;47.994;8.820;2023-04-25T10:41:09;1.40;;;1.30;;
7383;SDS011;3733;47.994;8.820;2023-04-25T10:43:43;1.10;;;1.00;;
7383;SDS011;3733;47.994;8.820;2023-04-25T10:46:13;3.70;;;1.10;;
7383;SDS011;3733;47.994;8.820;2023-04-25T10:48:44;2.33;;;1.33;;
7383;SDS011;3733;47.994;8.820;2023-04-25T10:51:17;1.23;;;1.13;;
7383;SDS011;3733;47.994;8.820;2023-04-25T10:53:46;1.20;;;1.10;;
7383;SDS011;3733;47.994;8.820;2023-04-25T10:58:47;1.60;;;1.30;;
7383;SDS011;3733;47.994;8.820;2023-04-25T11:01:15;1.00;;;1.00;;
7383;SDS011;3733;47.994;8.820;2023-04-25T11:03:44;0.90;;;0.90;;
7383;SDS011;3733;47.994;8.820;2023-04-25T11:06:58;1.00;;;1.00;;
7383;SDS011;3733;47.994;8.820;2023-04-25T11:09:16;1.00;;;0.97;;
7383;SDS011;3733;47.994;8.820;2023-04-25T11:11:42;0.90;;;0.90;;
7383;SDS011;3733;47.994;8.820;2023-04-25T11:14:08;1.30;;;0.90;;
7383;SDS011;3733;47.994;8.820;2023-04-25T11:16:33;0.77;;;0.77;;
7383;SDS011;3733;47.994;8.820;2023-04-25T11:19:01;2.10;;;0.80;;
7383;SDS011;3733;47.994;8.820;2023-04-25T11:21:27;0.80;;;0.80;;
7383;SDS011;3733;47.994;8.820;2023-04-25T11:23:53;0.80;;;0.80;;
7383;SDS011;3733;47.994;8.820;2023-04-25T11:26:21;0.80;;;0.80;;
7383;SDS011;3733;47.994;8.820;2023-04-25T11:28:48;1.03;;;1.03;;
7383;SDS011;3733;47.994;8.820;2023-04-25T11:31:14;12.40;;;3.53;;
7383;SDS011;3733;47.994;8.820;2023-04-25T11:33:40;0.80;;;0.80;;
7383;SDS011;3733;47.994;8.820;2023-04-25T11:36:06;1.23;;;1.00;;
7383;SDS011;3733;47.994;8.820;2023-04-25T11:38:32;0.97;;;0.80;;
7383;SDS011;3733;47.994;8.820;2023-04-25T11:40:57;1.00;;;1.00;;
7383;SDS011;3733;47.994;8.820;2023-04-25T11:43:23;1.00;;;1.00;;
7383;SDS011;3733;47.994;8.820;2023-04-25T11:45:50;1.00;;;0.90;;
7383;SDS011;3733;47.994;8.820;2023-04-25T11:48:17;0.70;;;0.70;;
7383;SDS011;3733;47.994;8.820;2023-04-25T11:50:43;0.80;;;0.80;;
7383;SDS011;3733;47.994;8.820;2023-04-25T11:53:10;0.90;;;0.90;;
7383;SDS011;3733;47.994;8.820;2023-04-25T11:55:36;1.20;;;1.10;;
7383;SDS011;3733;47.994;8.820;2023-04-25T11:58:02;0.80;;;0.80;;
7383;SDS011;3733;47.994;8.820;2023-04-25T12:00:29;0.80;;;0.80;;
7383;SDS011;3733;47.994;8.820;2023-04-25T12:02:56;1.10;;;1.10;;
7383;SDS011;3733;47.994;8.820;2023-04-25T12:05:29;0.90;;;0.90;;
7383;SDS011;3733;47.994;8.820;2023-04-25T12:07:58;2.97;;;0.90;;
7383;SDS011;3733;47.994;8.820;2023-04-25T12:10:36;0.87;;;0.87;;
7383;SDS011;3733;47.994;8.820;2023-04-25T12:13:21;1.10;;;1.00;;
7383;SDS011;3733;47.994;8.820;2023-04-25T12:15:53;1.33;;;1.20;;
7383;SDS011;3733;47.994;8.820;2023-04-25T12:18:20;1.30;;;1.20;;
7383;SDS011;3733;47.994;8.820;2023-04-25T12:20:48;1.03;;;1.00;;
7383;SDS011;3733;47.994;8.820;2023-04-25T12:23:14;1.50;;;1.40;;
7383;SDS011;3733;47.994;8.820;2023-04-25T12:25:41;1.37;;;1.27;;
7383;SDS011;3733;47.994;8.820;2023-04-25T12:33:22;1.37;;;1.23;;
7383;SDS011;3733;47.994;8.820;2023-04-25T12:35:48;1.93;;;1.40;;
7383;SDS011;3733;47.994;8.820;2023-04-25T12:38:24;1.17;;;1.13;;
7383;SDS011;3733;47.994;8.820;2023-04-25T12:40:51;1.40;;;1.30;;
7383;SDS011;3733;47.994;8.820;2023-04-25T12:43:17;1.60;;;1.50;;
7383;SDS011;3733;47.994;8.820;2023-04-25T12:45:53;1.50;;;1.40;;
7383;SDS011;3733;47.994;8.820;2023-04-25T12:48:20;3.63;;;1.50;;
7383;SDS011;3733;47.994;8.820;2023-04-25T12:50:46;1.70;;;1.60;;
7383;SDS011;3733;47.994;8.820;2023-04-25T12:53:16;1.33;;;1.23;;
7383;SDS011;3733;47.994;8.820;2023-04-25T12:55:43;3.30;;;2.03;;
7383;SDS011;3733;47.994;8.820;2023-04-25T12:58:10;1.43;;;1.33;;
7383;SDS011;3733;47.994;8.820;2023-04-25T13:00:36;1.60;;;1.50;;
7383;SDS011;3733;47.994;8.820;2023-04-25T13:03:02;1.50;;;1.40;;
7383;SDS011;3733;47.994;8.820;2023-04-25T13:05:29;1.97;;;1.77;;
7383;SDS011;3733;47.994;8.820;2023-04-25T13:07:55;2.00;;;1.40;;
7383;SDS011;3733;47.994;8.820;2023-04-25T13:10:21;1.63;;;1.47;;
7383;SDS011;3733;47.994;8.820;2023-04-25T13:12:47;1.30;;;1.20;;
7383;SDS011;3733;47.994;8.820;2023-04-25T13:15:13;1.50;;;1.40;;
7383;SDS011;3733;47.994;8.820;2023-04-25T13:17:40;1.60;;;1.50;;
7383;SDS011;3733;47.994;8.820;2023-04-25T13:20:07;1.57;;;1.47;;
7383;SDS011;3733;47.994;8.820;2023-04-25T13:22:34;1.97;;;1.50;;
7383;SDS011;3733;47.994;8.820;2023-04-25T13:25:04;1.63;;;1.53;;
7383;SDS011;3733;47.994;8.820;2023-04-25T13:27:31;1.93;;;1.70;;
7383;SDS011;3733;47.994;8.820;2023-04-25T13:30:03;1.50;;;1.40;;
7383;SDS011;3733;47.994;8.820;2023-04-25T13:32:35;1.70;;;1.60;;
7383;SDS011;3733;47.994;8.820;2023-04-25T13:35:02;1.70;;;1.60;;
7383;SDS011;3733;47.994;8.820;2023-04-25T13:37:29;2.10;;;1.30;;
7383;SDS011;3733;47.994;8.820;2023-04-25T13:39:57;1.70;;;1.60;;
7383;SDS011;3733;47.994;8.820;2023-04-25T13:42:29;1.80;;;1.70;;
7383;SDS011;3733;47.994;8.820;2023-04-25T13:44:55;1.97;;;1.73;;
7383;SDS011;3733;47.994;8.820;2023-04-25T13:47:20;1.70;;;1.60;;
7383;SDS011;3733;47.994;8.820;2023-04-25T13:49:47;6.70;;;2.00;;
7383;SDS011;3733;47.994;8.820;2023-04-25T13:52:13;1.87;;;1.77;;
7383;SDS011;3733;47.994;8.820;2023-04-25T13:54:38;2.40;;;1.70;;
7383;SDS011;3733;47.994;8.820;2023-04-25T13:57:04;1.90;;;1.40;;
7383;SDS011;3733;47.994;8.820;2023-04-25T13:59:30;1.80;;;1.70;;
7383;SDS011;3733;47.994;8.820;2023-04-25T14:01:56;1.53;;;1.43;;
7383;SDS011;3733;47.994;8.820;2023-04-25T14:04:21;2.30;;;1.47;;
7383;SDS011;3733;47.994;8.820;2023-04-25T14:06:47;1.50;;;1.40;;
7383;SDS011;3733;47.994;8.820;2023-04-25T14:09:13;1.60;;;1.50;;
7383;SDS011;3733;47.994;8.820;2023-04-25T14:11:38;1.83;;;1.73;;
7383;SDS011;3733;47.994;8.820;2023-04-25T14:14:04;1.70;;;1.60;;
7383;SDS011;3733;47.994;8.820;2023-04-25T14:16:30;2.00;;;1.90;;
7383;SDS011;3733;47.994;8.820;2023-04-25T14:18:57;1.70;;;1.60;;
7383;SDS011;3733;47.994;8.820;2023-04-25T14:21:23;2.10;;;1.90;;
7383;SDS011;3733;47.994;8.820;2023-04-25T14:23:50;1.97;;;1.83;;
7383;SDS011;3733;47.994;8.820;2023-04-25T14:26:15;4.00;;;1.83;;
7383;SDS011;3733;47.994;8.820;2023-04-25T14:28:41;1.70;;;1.60;;
7383;SDS011;3733;47.994;8.820;2023-04-25T14:31:07;1.63;;;1.53;;
7383;SDS011;3733;47.994;8.820;2023-04-25T14:33:32;2.60;;;1.73;;
7383;SDS011;3733;47.994;8.820;2023-04-25T14:35:58;0.93;;;0.93;;
7383;SDS011;3733;47.994;8.820;2023-04-25T14:38:24;1.47;;;1.37;;
7383;SDS011;3733;47.994;8.820;2023-04-25T14:40:50;2.13;;;1.57;;
7383;SDS011;3733;47.994;8.820;2023-04-25T14:43:16;1.50;;;1.40;;
7383;SDS011;3733;47.994;8.820;2023-04-25T14:45:42;14.87;;;3.10;;
7383;SDS011;3733;47.994;8.820;2023-04-25T14:48:07;3.00;;;1.70;;
7383;SDS011;3733;47.994;8.820;2023-04-25T14:50:33;5.53;;;1.43;;
7383;SDS011;3733;47.994;8.820;2023-04-25T14:52:59;2.13;;;1.50;;
7383;SDS011;3733;47.994;8.820;2023-04-25T14:55:28;2.50;;;1.70;;
7383;SDS011;3733;47.994;8.820;2023-04-25T14:57:54;2.17;;;1.57;;
7383;SDS011;3733;47.994;8.820;2023-04-25T15:00:20;1.40;;;1.30;;
7383;SDS011;3733;47.994;8.820;2023-04-25T15:02:47;1.80;;;1.40;;
7383;SDS011;3733;47.994;8.820;2023-04-25T15:05:16;1.70;;;1.60;;
7383;SDS011;3733;47.994;8.820;2023-04-25T15:07:42;3.73;;;1.83;;
7383;SDS011;3733;47.994;8.820;2023-04-25T15:10:08;1.47;;;1.37;;
7383;SDS011;3733;47.994;8.820;2023-04-25T15:12:39;4.20;;;1.50;;
7383;SDS011;3733;47.994;8.820;2023-04-25T15:15:05;1.67;;;1.57;;
7383;SDS011;3733;47.994;8.820;2023-04-25T15:17:36;2.00;;;1.80;;
7383;SDS011;3733;47.994;8.820;2023-04-25T15:20:11;2.23;;;1.40;;
7383;SDS011;3733;47.994;8.820;2023-04-25T15:22:38;2.30;;;2.10;;
7383;SDS011;3733;47.994;8.820;2023-04-25T15:25:05;2.50;;;2.30;;
7383;SDS011;3733;47.994;8.820;2023-04-25T15:27:35;2.00;;;1.90;;
7383;SDS011;3733;47.994;8.820;2023-04-25T15:30:09;2.80;;;2.20;;